Time;durP1;ratioP1;P1;durP2;ratioP2;P2;SDS_P1;SDS_P2;PMS_P1;PMS_P2;Temp;Humidity;BMP_temperature;BMP_pressure;BME280_temperature;BME280_humidity;BME280_pressure;Samples;Min_cycle;Max_cycle;Signal;HPM_P1;HPM_P2
2023/03/02 00:01:49;;;;;;;34.00;20.13;;;;;;;4.41;100.00;98531.94;5049624;28;20077;-63
2023/03/02 00:04:38;;;;;;;33.58;20.27;;;;;;;4.26;100.00;98505.50;5052131;28;20060;-63
2023/03/02 00:07:09;;;;;;;34.28;19.83;;;;;;;4.16;100.00;98486.47;5038674;28;20048;-64
2023/03/02 00:09:35;;;;;;;35.15;19.85;;;;;;;4.43;100.00;98530.06;5047731;28;20055;-65
2023/03/02 00:12:01;;;;;;;36.58;21.30;;;;;;;4.51;100.00;98534.66;5050490;28;20021;-65
2023/03/02 00:14:26;;;;;;;35.88;21.70;;;;;;;4.50;100.00;98545.91;5047793;28;20089;-64
2023/03/02 00:16:51;;;;;;;32.83;20.77;;;;;;;4.43;100.00;98530.91;5050435;28;20036;-64
2023/03/02 00:19:17;;;;;;;33.85;20.60;;;;;;;4.48;100.00;98542.63;5050342;28;20036;-64
2023/03/02 00:21:42;;;;;;;34.88;21.23;;;;;;;4.44;100.00;98544.59;5052884;28;20494;-64
2023/03/02 00:24:08;;;;;;;34.45;21.13;;;;;;;4.40;100.00;98538.84;5048267;28;20120;-65
2023/03/02 00:26:35;;;;;;;30.52;19.45;;;;;;;4.51;100.00;98548.38;5030606;28;20843;-63
2023/03/02 00:29:00;;;;;;;36.00;19.95;;;;;;;4.35;100.00;98522.88;5052074;28;20041;-65
2023/03/02 00:31:26;;;;;;;32.38;20.60;;;;;;;4.54;100.00;98531.88;5045882;28;20051;-63
2023/03/02 00:33:55;;;;;;;33.42;20.05;;;;;;;4.68;100.00;98541.22;5032814;28;20028;-63
2023/03/02 00:36:22;;;;;;;33.25;19.90;;;;;;;4.61;100.00;98533.09;5049340;28;20096;-64
2023/03/02 00:38:47;;;;;;;30.45;19.55;;;;;;;4.63;100.00;98544.09;5054978;28;20044;-63
2023/03/02 00:41:14;;;;;;;33.88;20.52;;;;;;;4.51;100.00;98530.34;5051736;28;20115;-64
2023/03/02 00:43:39;;;;;;;33.42;19.65;;;;;;;4.53;100.00;98540.56;5049773;28;20445;-65
2023/03/02 00:46:15;;;;;;;33.67;19.50;;;;;;;4.36;100.00;98532.25;5064180;28;20033;-63
2023/03/02 00:48:41;;;;;;;30.92;19.70;;;;;;;4.39;100.00;98529.44;5034978;28;20476;-65
2023/03/02 00:51:07;;;;;;;34.47;21.52;;;;;;;4.42;100.00;98538.72;5054270;28;20027;-64
2023/03/02 00:53:33;;;;;;;36.17;22.40;;;;;;;4.47;100.00;98536.63;5056138;28;20823;-64
2023/03/02 00:56:00;;;;;;;30.73;18.92;;;;;;;4.54;100.00;98532.69;5069951;28;20036;-64
2023/03/02 00:58:29;;;;;;;35.42;20.90;;;;;;;4.49;100.00;98529.66;5060348;28;20028;-65
2023/03/02 01:00:54;;;;;;;31.97;20.57;;;;;;;4.50;100.00;98539.00;5051285;28;20036;-65
2023/03/02 01:03:20;;;;;;;31.42;19.58;;;;;;;4.56;100.00;98535.16;5055589;28;20275;-64
2023/03/02 01:05:45;;;;;;;35.08;20.27;;;;;;;4.60;100.00;98513.44;5047247;28;20046;-65
2023/03/02 01:08:11;;;;;;;33.40;19.98;;;;;;;4.57;100.00;98532.50;5056652;28;20028;-64
2023/03/02 01:10:37;;;;;;;31.83;19.42;;;;;;;4.57;100.00;98516.22;5056287;28;20066;-63
2023/03/02 01:13:04;;;;;;;32.65;21.23;;;;;;;4.30;100.00;98481.19;5043643;28;20671;-63
2023/03/02 01:15:29;;;;;;;33.63;20.42;;;;;;;4.53;100.00;98512.22;5063881;28;20032;-64
2023/03/02 01:17:55;;;;;;;35.42;20.23;;;;;;;4.40;100.00;98502.78;5070847;28;20032;-64
2023/03/02 01:20:20;;;;;;;34.35;21.08;;;;;;;4.56;100.00;98512.84;5038454;28;20114;-63
2023/03/02 01:22:45;;;;;;;32.85;19.95;;;;;;;4.56;100.00;98517.13;5071665;28;20055;-63
2023/03/02 01:25:12;;;;;;;33.78;21.45;;;;;;;4.47;100.00;98510.06;5038268;28;20436;-65
2023/03/02 01:27:37;;;;;;;34.53;21.02;;;;;;;4.46;100.00;98511.84;5056771;28;20051;-63
2023/03/02 01:30:03;;;;;;;34.75;21.05;;;;;;;4.22;100.00;98480.94;5077204;28;20128;-64
2023/03/02 01:32:29;;;;;;;34.83;21.60;;;;;;;4.18;100.00;98470.03;5081045;28;20515;-64
2023/03/02 01:34:54;;;;;;;35.30;20.73;;;;;;;4.53;100.00;98504.50;5060388;28;20060;-64
2023/03/02 01:37:21;;;;;;;33.50;20.05;;;;;;;4.65;100.00;98513.91;5060646;28;20852;-63
2023/03/02 01:39:47;;;;;;;34.60;20.73;;;;;;;4.67;100.00;98503.50;5059716;28;20044;-64
2023/03/02 01:42:13;;;;;;;34.75;21.73;;;;;;;4.60;100.00;98503.13;5060606;28;20039;-64
2023/03/02 01:44:50;;;;;;;36.53;21.77;;;;;;;4.58;100.00;98508.41;5080002;28;20143;-64
2023/03/02 01:47:31;;;;;;;35.05;21.63;;;;;;;4.61;100.00;98490.13;5060022;28;20036;-64
2023/03/02 01:50:18;;;;;;;34.72;21.70;;;;;;;4.60;100.00;98503.94;5057934;28;20028;-64
2023/03/02 01:52:44;;;;;;;35.28;21.23;;;;;;;4.68;100.00;98495.66;5045513;28;20852;-64
2023/03/02 01:55:12;;;;;;;36.22;20.80;;;;;;;4.65;100.00;98488.16;5046182;28;20024;-63
2023/03/02 01:57:45;;;;;;;36.08;22.35;;;;;;;4.70;100.00;98491.22;5062317;28;20028;-63
2023/03/02 02:00:15;;;;;;;33.38;21.13;;;;;;;4.64;100.00;98504.56;5042878;28;20028;-65
2023/03/02 02:02:41;;;;;;;34.15;20.67;;;;;;;4.53;100.00;98487.28;5041899;28;20032;-63
2023/03/02 02:05:13;;;;;;;32.35;19.15;;;;;;;4.42;100.00;98472.59;5049595;28;20031;-64
2023/03/02 02:07:39;;;;;;;35.80;21.02;;;;;;;3.93;100.00;98403.19;5056318;28;20024;-65
2023/03/02 02:10:05;;;;;;;35.20;22.45;;;;;;;4.62;100.00;98496.13;5033295;28;20055;-65
2023/03/02 02:12:30;;;;;;;35.50;21.42;;;;;;;4.55;100.00;98500.88;5054138;28;20098;-65
2023/03/02 02:14:59;;;;;;;36.17;22.83;;;;;;;4.72;100.00;98488.53;5077957;28;20384;-64
2023/03/02 02:17:25;;;;;;;34.47;21.10;;;;;;;4.76;100.00;98497.69;5076676;28;20635;-65
2023/03/02 02:20:06;;;;;;;35.28;22.20;;;;;;;4.54;100.00;98470.09;5060010;28;20032;-63
2023/03/02 02:22:37;;;;;;;33.78;20.75;;;;;;;4.77;100.00;98496.78;5051010;28;20463;-64
2023/03/02 02:25:06;;;;;;;35.13;21.48;;;;;;;4.26;100.00;98430.88;5073750;28;20036;-63
2023/03/02 02:27:32;;;;;;;37.17;22.38;;;;;;;4.53;100.00;98496.78;5041784;28;20032;-64
2023/03/02 02:29:58;;;;;;;35.78;22.35;;;;;;;4.22;100.00;98435.41;5073240;28;20086;-65
2023/03/02 02:32:26;;;;;;;33.75;21.23;;;;;;;4.64;100.00;98491.69;5054457;28;20176;-64
2023/03/02 02:35:10;;;;;;;38.83;22.70;;;;;;;4.45;100.00;98489.56;5047992;28;20540;-64
2023/03/02 02:37:48;;;;;;;35.53;20.67;;;;;;;4.43;100.00;98484.56;5079500;28;20057;-63
2023/03/02 02:40:39;;;;;;;37.25;22.48;;;;;;;4.57;100.00;98485.31;5056568;28;20094;-64
2023/03/02 02:43:05;;;;;;;33.00;20.55;;;;;;;4.54;100.00;98486.34;5077647;28;20453;-64
2023/03/02 02:45:30;;;;;;;33.53;20.45;;;;;;;4.41;100.00;98481.25;5057926;28;20031;-63
2023/03/02 02:47:56;;;;;;;33.75;20.23;;;;;;;4.39;100.00;98492.59;5046349;28;20043;-64
2023/03/02 02:50:25;;;;;;;33.40;19.83;;;;;;;4.40;100.00;98476.22;5056534;28;20028;-63
2023/03/02 02:52:54;;;;;;;33.33;20.90;;;;;;;4.38;100.00;98480.66;5058793;28;20070;-64
2023/03/02 02:55:22;;;;;;;32.22;21.10;;;;;;;4.17;100.00;98439.25;5062437;28;20032;-64
2023/03/02 02:57:48;;;;;;;34.13;20.52;;;;;;;4.34;100.00;98481.78;5076204;28;20035;-63
2023/03/02 03:00:18;;;;;;;32.13;20.25;;;;;;;4.21;100.00;98472.34;5061062;28;20056;-64
2023/03/02 03:02:44;;;;;;;32.20;20.05;;;;;;;4.18;100.00;98476.91;5058964;28;20026;-64
2023/03/02 03:05:16;;;;;;;36.78;21.35;;;;;;;4.13;100.00;98458.41;5060882;28;20060;-64
2023/03/02 03:07:42;;;;;;;34.17;20.50;;;;;;;4.19;100.00;98475.97;5077344;28;20123;-64
2023/03/02 03:10:33;;;;;;;33.33;20.20;;;;;;;4.06;100.00;98463.16;5062783;28;20472;-66
2023/03/02 03:12:59;;;;;;;35.80;20.98;;;;;;;4.06;100.00;98476.03;5061857;28;20032;-64
2023/03/02 03:15:24;;;;;;;37.10;20.90;;;;;;;4.11;100.00;98473.94;5054537;28;20040;-65
2023/03/02 03:17:57;;;;;;;35.30;21.52;;;;;;;4.13;100.00;98473.84;5081361;28;20570;-65
2023/03/02 03:20:23;;;;;;;33.92;20.88;;;;;;;4.22;100.00;98468.06;5059945;28;20024;-65
2023/03/02 03:22:52;;;;;;;35.47;21.35;;;;;;;3.89;100.00;98417.19;5058655;28;20409;-64
2023/03/02 03:25:18;;;;;;;34.17;20.42;;;;;;;4.33;100.00;98482.75;5053124;28;20039;-64
2023/03/02 03:27:44;;;;;;;36.95;20.35;;;;;;;3.91;100.00;98408.44;5052025;28;20109;-64
2023/03/02 03:30:11;;;;;;;33.25;19.88;;;;;;;3.97;100.00;98425.19;5055897;28;20040;-64
2023/03/02 03:32:37;;;;;;;35.25;21.35;;;;;;;4.36;100.00;98482.50;5070244;28;20544;-64
2023/03/02 03:35:07;;;;;;;32.50;20.58;;;;;;;4.39;100.00;98477.97;5056074;28;20102;-63
2023/03/02 03:37:33;;;;;;;34.03;21.23;;;;;;;4.36;100.00;98479.94;5057003;28;20162;-64
2023/03/02 03:39:58;;;;;;;33.58;19.80;;;;;;;4.33;100.00;98473.25;5058063;28;20032;-62
2023/03/02 03:42:23;;;;;;;33.15;20.50;;;;;;;4.07;100.00;98423.63;5058344;28;20652;-64
2023/03/02 03:44:49;;;;;;;33.08;20.35;;;;;;;4.40;100.00;98479.63;5043322;28;20085;-63
2023/03/02 03:47:14;;;;;;;34.47;20.88;;;;;;;4.46;100.00;98472.41;5074749;28;21253;-63
2023/03/02 03:49:40;;;;;;;33.38;21.38;;;;;;;4.16;100.00;98433.28;5054446;28;20419;-63
2023/03/02 03:52:05;;;;;;;34.88;21.83;;;;;;;4.55;100.00;98490.56;5075425;28;20134;-63
2023/03/02 03:54:31;;;;;;;34.05;20.75;;;;;;;4.60;100.00;98491.06;5060005;28;20028;-63
2023/03/02 03:56:56;;;;;;;31.80;20.75;;;;;;;4.53;100.00;98486.47;5055881;28;20023;-64
2023/03/02 03:59:23;;;;;;;34.88;21.05;;;;;;;4.55;100.00;98482.84;5047669;28;20056;-63
2023/03/02 04:01:51;;;;;;;36.42;20.70;;;;;;;4.62;100.00;98493.53;5053282;28;20666;-62
2023/03/02 04:04:38;;;;;;;36.03;20.42;;;;;;;4.45;100.00;98488.75;5057289;28;20085;-63
2023/03/02 04:07:04;;;;;;;33.50;21.73;;;;;;;4.48;100.00;98466.19;5074894;28;20531;-63
2023/03/02 04:09:31;;;;;;;36.58;21.80;;;;;;;4.53;100.00;98478.75;5056054;28;20488;-62
2023/03/02 04:11:56;;;;;;;35.67;22.00;;;;;;;4.57;100.00;98486.13;5042205;28;20565;-63
2023/03/02 04:14:22;;;;;;;34.33;20.42;;;;;;;4.52;100.00;98477.09;5042132;28;20036;-64
2023/03/02 04:16:48;;;;;;;34.97;21.40;;;;;;;4.50;100.00;98489.25;5075159;28;20032;-65
2023/03/02 04:19:16;;;;;;;35.95;21.42;;;;;;;4.66;100.00;98489.81;5036869;28;20035;-66
2023/03/02 04:21:47;;;;;;;35.08;21.23;;;;;;;4.66;100.00;98499.31;5057175;28;20024;-65
2023/03/02 04:24:13;;;;;;;36.33;22.27;;;;;;;4.31;100.00;98439.09;5050914;28;20028;-64
2023/03/02 04:26:40;;;;;;;32.45;20.50;;;;;;;4.41;100.00;98445.22;5055153;28;20128;-64
2023/03/02 04:29:06;;;;;;;35.88;21.33;;;;;;;4.69;100.00;98502.47;5057283;28;20081;-64
2023/03/02 04:31:31;;;;;;;35.35;21.48;;;;;;;4.24;100.00;98432.72;5044937;28;20028;-64
2023/03/02 04:33:57;;;;;;;33.78;21.17;;;;;;;4.63;100.00;98495.16;5056448;28;20040;-64
2023/03/02 04:36:23;;;;;;;36.72;21.90;;;;;;;4.57;100.00;98503.34;5057056;28;20031;-63
2023/03/02 04:38:49;;;;;;;33.90;21.02;;;;;;;4.54;100.00;98504.38;5057203;28;20942;-63
2023/03/02 04:41:15;;;;;;;36.08;21.00;;;;;;;4.61;100.00;98508.16;5041509;28;20046;-64
2023/03/02 04:43:40;;;;;;;34.38;21.27;;;;;;;4.54;100.00;98501.78;5052227;28;20067;-64
2023/03/02 04:46:06;;;;;;;33.10;20.00;;;;;;;4.56;100.00;98502.53;5057491;28;20524;-64
2023/03/02 04:48:31;;;;;;;33.30;21.27;;;;;;;4.55;100.00;98502.63;5050477;28;20310;-64
2023/03/02 04:50:57;;;;;;;35.60;21.23;;;;;;;4.37;100.00;98466.97;5068208;28;20123;-64
2023/03/02 04:53:22;;;;;;;34.80;21.83;;;;;;;4.38;100.00;98449.75;5069366;28;20040;-64
2023/03/02 04:55:48;;;;;;;36.70;22.00;;;;;;;4.63;100.00;98513.19;5054506;28;20024;-63
2023/03/02 04:58:13;;;;;;;36.40;21.73;;;;;;;4.65;100.00;98524.22;5054550;28;20078;-64
2023/03/02 05:00:39;;;;;;;34.35;22.00;;;;;;;4.58;100.00;98513.53;5074820;28;20028;-64
2023/03/02 05:03:05;;;;;;;37.30;22.02;;;;;;;4.50;100.00;98492.66;5052050;28;20237;-64
2023/03/02 05:05:31;;;;;;;35.53;22.05;;;;;;;4.64;100.00;98504.56;5060285;28;20044;-64
2023/03/02 05:07:59;;;;;;;37.42;21.38;;;;;;;4.63;100.00;98501.13;5056239;28;20111;-63
2023/03/02 05:10:26;;;;;;;35.22;21.65;;;;;;;4.73;100.00;98513.38;5045736;28;20029;-63
2023/03/02 05:13:01;;;;;;;36.15;21.52;;;;;;;4.47;100.00;98510.88;5050722;28;20685;-63
2023/03/02 05:15:34;;;;;;;35.97;22.40;;;;;;;4.30;100.00;98512.09;5048699;28;20042;-64
2023/03/02 05:18:00;;;;;;;37.70;23.20;;;;;;;4.16;100.00;98500.19;5056553;28;20155;-64
2023/03/02 05:20:30;;;;;;;37.95;23.30;;;;;;;4.25;100.00;98503.84;5062017;28;20024;-63
2023/03/02 05:23:08;;;;;;;37.65;22.83;;;;;;;4.33;100.00;98513.63;5042301;28;20032;-64
2023/03/02 05:25:35;;;;;;;38.25;22.17;;;;;;;4.27;100.00;98504.59;5054120;28;20054;-63
2023/03/02 05:28:01;;;;;;;38.85;23.75;;;;;;;4.20;100.00;98487.94;5033760;28;20063;-63
2023/03/02 05:30:27;;;;;;;36.00;22.48;;;;;;;4.24;100.00;98507.38;5036314;28;20106;-63
2023/03/02 05:32:53;;;;;;;38.80;22.58;;;;;;;4.04;100.00;98455.53;5040889;28;20097;-63
2023/03/02 05:35:20;;;;;;;36.58;22.17;;;;;;;4.43;100.00;98502.59;5052461;28;20131;-63
2023/03/02 05:37:46;;;;;;;40.33;23.17;;;;;;;4.45;100.00;98512.75;5056905;28;20087;-63
2023/03/02 05:40:17;;;;;;;41.70;23.02;;;;;;;4.42;100.00;98494.97;5067476;28;21151;-63
2023/03/02 05:42:43;;;;;;;38.10;23.05;;;;;;;4.04;100.00;98440.09;5056980;28;20031;-63
2023/03/02 05:45:15;;;;;;;37.80;23.65;;;;;;;4.36;100.00;98500.53;5070357;28;20131;-64
2023/03/02 05:47:40;;;;;;;40.33;23.30;;;;;;;4.34;100.00;98479.22;5051277;28;20027;-63
2023/03/02 05:50:06;;;;;;;37.38;22.63;;;;;;;4.49;100.00;98508.22;5038675;28;20032;-63
2023/03/02 05:52:32;;;;;;;38.65;22.70;;;;;;;4.50;100.00;98512.44;5050393;28;20090;-62
2023/03/02 05:54:57;;;;;;;41.13;23.05;;;;;;;4.48;100.00;98509.97;5044193;28;20127;-62
2023/03/02 05:57:23;;;;;;;38.58;22.35;;;;;;;4.51;100.00;98511.50;5075735;28;20914;-62
2023/03/02 05:59:49;;;;;;;41.10;22.85;;;;;;;4.51;100.00;98516.63;5060910;28;20036;-63
2023/03/02 06:02:15;;;;;;;40.25;22.83;;;;;;;4.58;100.00;98513.53;5059787;28;20035;-64
2023/03/02 06:04:41;;;;;;;39.65;22.35;;;;;;;4.50;100.00;98499.56;5044471;28;20057;-63
2023/03/02 06:07:09;;;;;;;35.92;22.27;;;;;;;4.64;100.00;98514.84;5057711;28;20031;-63
2023/03/02 06:09:36;;;;;;;35.40;22.55;;;;;;;4.70;100.00;98511.84;5056689;28;20028;-64
2023/03/02 06:12:01;;;;;;;36.30;21.10;;;;;;;4.68;100.00;98518.03;5042071;28;20059;-64
2023/03/02 06:14:27;;;;;;;40.53;22.88;;;;;;;4.58;100.00;98523.84;5060888;28;20740;-63
2023/03/02 06:16:52;;;;;;;36.92;21.95;;;;;;;4.61;100.00;98513.31;5052973;28;20154;-63
2023/03/02 06:19:18;;;;;;;39.00;23.27;;;;;;;4.54;100.00;98513.84;5072063;28;20036;-63
2023/03/02 06:21:43;;;;;;;36.40;21.65;;;;;;;4.54;100.00;98491.50;5051989;28;20031;-63
2023/03/02 06:24:08;;;;;;;40.58;22.95;;;;;;;4.56;100.00;98512.84;5067488;28;20034;-64
2023/03/02 06:26:34;;;;;;;39.65;22.90;;;;;;;4.36;100.00;98493.66;5052556;28;20077;-64
2023/03/02 06:28:59;;;;;;;39.83;23.05;;;;;;;4.12;100.00;98444.69;5058921;28;20023;-65
2023/03/02 06:31:24;;;;;;;36.72;22.35;;;;;;;4.48;100.00;98507.41;5073814;28;20085;-63
2023/03/02 06:33:50;;;;;;;38.40;23.45;;;;;;;4.48;100.00;98511.72;5053255;28;20085;-65
2023/03/02 06:36:16;;;;;;;39.75;23.90;;;;;;;4.11;100.00;98457.69;5037099;28;20705;-64
2023/03/02 06:38:41;;;;;;;39.78;22.70;;;;;;;4.29;100.00;98495.00;5073534;28;20320;-63
2023/03/02 06:41:07;;;;;;;39.38;23.38;;;;;;;4.35;100.00;98509.19;5070946;28;20635;-63
2023/03/02 06:43:32;;;;;;;41.45;22.48;;;;;;;4.23;100.00;98491.13;5052591;28;20523;-65
2023/03/02 06:45:59;;;;;;;38.60;22.50;;;;;;;4.13;100.00;98472.09;5033130;28;20755;-64
2023/03/02 06:48:25;;;;;;;37.60;22.42;;;;;;;4.35;100.00;98502.28;5051682;28;20028;-64
2023/03/02 06:50:50;;;;;;;38.88;23.05;;;;;;;4.39;100.00;98502.91;5069813;28;20059;-63
2023/03/02 06:53:19;;;;;;;40.88;22.23;;;;;;;4.44;100.00;98516.28;5071274;28;20104;-64
2023/03/02 06:55:46;;;;;;;42.10;22.83;;;;;;;4.40;100.00;98507.13;5071157;28;20065;-63
2023/03/02 06:58:12;;;;;;;37.55;20.55;;;;;;;4.36;100.00;98505.69;5069998;28;20032;-64
2023/03/02 07:00:38;;;;;;;40.72;23.40;;;;;;;4.37;100.00;98515.88;5056569;28;20065;-62
2023/03/02 07:03:03;;;;;;;42.25;23.40;;;;;;;4.28;100.00;98511.38;5053931;28;20622;-64
2023/03/02 07:05:31;;;;;;;44.75;23.10;;;;;;;4.26;100.00;98502.94;5058761;28;20035;-64
2023/03/02 07:07:59;;;;;;;41.42;24.15;;;;;;;4.31;100.00;98507.75;5056093;28;20039;-64
2023/03/02 07:10:25;;;;;;;39.03;22.58;;;;;;;4.28;100.00;98508.78;5056654;28;20024;-64
2023/03/02 07:12:51;;;;;;;42.53;22.80;;;;;;;4.35;100.00;98510.00;5053602;28;20058;-64
2023/03/02 07:15:17;;;;;;;48.88;24.17;;;;;;;4.47;100.00;98517.78;5035584;28;20043;-64
2023/03/02 07:17:43;;;;;;;41.17;23.60;;;;;;;4.42;100.00;98513.00;5055050;28;20024;-63
2023/03/02 07:20:12;;;;;;;42.92;22.33;;;;;;;4.42;100.00;98520.72;5038521;28;20079;-64
2023/03/02 07:22:38;;;;;;;35.37;20.97;;;;;;;4.54;100.00;98526.72;5031372;28;20089;-64
2023/03/02 07:25:05;;;;;;;43.25;24.40;;;;;;;4.51;100.00;98521.78;5041320;28;20071;-63
2023/03/02 07:27:30;;;;;;;48.25;23.38;;;;;;;4.63;100.00;98529.47;5054240;28;20673;-63
2023/03/02 07:29:56;;;;;;;35.45;20.42;;;;;;;4.71;100.00;98526.38;5053487;28;20032;-63
2023/03/02 07:32:21;;;;;;;39.10;23.00;;;;;;;4.74;100.00;98530.47;5055640;28;20159;-64
2023/03/02 07:34:47;;;;;;;39.28;21.75;;;;;;;4.77;100.00;98525.09;5058753;28;20132;-64
2023/03/02 07:37:12;;;;;;;40.95;22.98;;;;;;;4.78;100.00;98527.56;5055764;28;20111;-64
2023/03/02 07:39:37;;;;;;;39.97;22.70;;;;;;;4.86;100.00;98524.44;5031910;28;20129;-64
2023/03/02 07:42:03;;;;;;;39.97;23.08;;;;;;;4.92;100.00;98524.00;5040679;28;20438;-63
2023/03/02 07:44:29;;;;;;;39.42;23.08;;;;;;;5.00;100.00;98524.28;5050656;28;20256;-64
2023/03/02 07:46:54;;;;;;;45.55;24.92;;;;;;;4.99;100.00;98534.69;5046510;28;20039;-64
2023/03/02 07:49:20;;;;;;;37.92;22.63;;;;;;;4.95;100.00;98530.69;5054710;28;20039;-63
2023/03/02 07:51:45;;;;;;;39.33;22.52;;;;;;;4.99;100.00;98525.19;5054925;28;20177;-64
2023/03/02 07:54:11;;;;;;;44.08;24.80;;;;;;;4.87;100.00;98500.31;5050547;28;20174;-64
2023/03/02 07:56:36;;;;;;;40.85;23.85;;;;;;;5.06;100.00;98538.47;5056113;28;20047;-63
2023/03/02 07:59:01;;;;;;;42.28;24.30;;;;;;;5.08;100.00;98535.78;5045442;28;20028;-64
2023/03/02 08:01:27;;;;;;;38.95;22.73;;;;;;;5.13;100.00;98531.94;5072794;28;20432;-65
2023/03/02 08:03:52;;;;;;;39.03;22.25;;;;;;;5.18;100.00;98532.41;5057543;28;20040;-64
2023/03/02 08:06:18;;;;;;;40.63;21.50;;;;;;;5.22;100.00;98533.03;5055978;28;20025;-63
2023/03/02 08:08:43;;;;;;;42.13;23.73;;;;;;;5.20;100.00;98527.97;5041526;28;20134;-63
2023/03/02 08:11:12;;;;;;;40.80;23.20;;;;;;;5.20;100.00;98522.81;5043288;28;20104;-64
2023/03/02 08:13:37;;;;;;;40.33;24.02;;;;;;;5.36;100.00;98537.13;5058495;28;20437;-63
2023/03/02 08:16:05;;;;;;;41.50;22.92;;;;;;;5.29;100.00;98531.59;5039827;28;20040;-64
2023/03/02 08:18:31;;;;;;;40.53;24.00;;;;;;;5.43;100.00;98530.59;5074938;28;20055;-63
2023/03/02 08:20:56;;;;;;;39.80;23.90;;;;;;;5.38;100.00;98523.22;5055611;28;20024;-63
2023/03/02 08:23:23;;;;;;;40.08;23.55;;;;;;;5.40;100.00;98523.06;5074293;28;20027;-63
2023/03/02 08:25:48;;;;;;;42.53;24.13;;;;;;;4.92;100.00;98463.91;5057170;28;20118;-63
2023/03/02 08:28:14;;;;;;;41.38;23.98;;;;;;;5.26;100.00;98523.31;5052199;28;20034;-63
2023/03/02 08:30:39;;;;;;;40.38;23.52;;;;;;;5.24;100.00;98520.00;5054765;28;20077;-63
2023/03/02 08:33:05;;;;;;;39.03;22.00;;;;;;;5.00;100.00;98470.16;5042813;28;20232;-63
2023/03/02 08:35:30;;;;;;;37.80;22.60;;;;;;;5.27;100.00;98519.78;5074498;28;20048;-64
2023/03/02 08:37:56;;;;;;;38.22;23.25;;;;;;;5.40;100.00;98517.91;5055542;28;20536;-61
2023/03/02 08:40:21;;;;;;;41.88;24.02;;;;;;;5.16;100.00;98471.59;5059726;28;20024;-61
2023/03/02 08:42:48;;;;;;;38.45;22.67;;;;;;;5.45;100.00;98515.81;5058478;28;20032;-62
2023/03/02 08:45:14;;;;;;;39.22;23.52;;;;;;;5.47;100.00;98520.88;5073418;28;20582;-62
2023/03/02 08:47:39;;;;;;;48.42;25.73;;;;;;;5.26;100.00;98462.25;5052207;28;20047;-62
2023/03/02 08:50:05;;;;;;;46.85;25.77;;;;;;;5.47;100.00;98513.94;5055776;28;20134;-62
2023/03/02 08:52:33;;;;;;;44.92;24.25;;;;;;;5.58;100.00;98511.41;5053483;28;20107;-61
2023/03/02 08:54:59;;;;;;;45.05;24.77;;;;;;;5.67;100.00;98515.03;5056550;28;20020;-62
2023/03/02 08:57:25;;;;;;;41.80;24.42;;;;;;;5.63;100.00;98495.56;5078327;28;20524;-61
2023/03/02 08:59:51;;;;;;;41.47;23.65;;;;;;;5.74;100.00;98507.66;5056888;28;20032;-62
2023/03/02 09:02:16;;;;;;;41.85;24.48;;;;;;;5.70;100.00;98506.25;5077253;28;20114;-61
2023/03/02 09:04:42;;;;;;;42.63;25.08;;;;;;;5.73;100.00;98508.59;5055018;28;20060;-62
2023/03/02 09:07:07;;;;;;;44.42;25.13;;;;;;;5.70;100.00;98506.25;5047380;28;20583;-62
2023/03/02 09:09:33;;;;;;;39.03;23.08;;;;;;;5.76;100.00;98514.34;5038001;28;20706;-62
2023/03/02 09:11:58;;;;;;;39.95;23.63;;;;;;;5.72;100.00;98506.97;5071109;28;20028;-61
2023/03/02 09:14:24;;;;;;;36.92;22.42;;;;;;;5.77;100.00;98510.00;5056444;28;20156;-61
2023/03/02 09:16:51;;;;;;;40.88;23.65;;;;;;;5.80;100.00;98520.09;5075053;28;20798;-62
2023/03/02 09:19:17;;;;;;;39.85;22.95;;;;;;;5.80;100.00;98517.50;5054445;28;20028;-61
2023/03/02 09:21:42;;;;;;;39.40;22.98;;;;;;;5.86;100.00;98519.63;5048453;28;20036;-61
2023/03/02 09:24:08;;;;;;;39.97;21.77;;;;;;;5.56;100.00;98463.44;5048095;28;20042;-61
2023/03/02 09:26:33;;;;;;;41.50;23.38;;;;;;;5.92;100.00;98523.50;5050353;28;20032;-61
2023/03/02 09:28:59;;;;;;;38.45;22.83;;;;;;;5.87;100.00;98513.53;5050852;28;20531;-61
2023/03/02 09:31:25;;;;;;;40.08;23.60;;;;;;;5.84;100.00;98528.41;5046592;28;20039;-61
2023/03/02 09:33:51;;;;;;;37.90;23.05;;;;;;;5.83;100.00;98521.63;5051997;28;20070;-62
2023/03/02 09:36:22;;;;;;;38.65;22.50;;;;;;;5.80;100.00;98516.69;5076399;28;20032;-61
2023/03/02 09:38:48;;;;;;;37.17;22.25;;;;;;;5.84;100.00;98525.84;5058944;28;20369;-60
2023/03/02 09:41:19;;;;;;;40.47;22.20;;;;;;;5.86;100.00;98529.97;5060271;28;20049;-62
2023/03/02 09:44:00;;;;;;;38.58;22.38;;;;;;;5.83;100.00;98530.19;5076143;28;20062;-63
2023/03/02 09:46:32;;;;;;;38.90;23.38;;;;;;;5.90;100.00;98509.91;5071576;28;20063;-62
2023/03/02 09:49:27;;;;;;;40.80;23.05;;;;;;;5.95;100.00;98526.69;5072639;28;20653;-62
2023/03/02 09:52:10;;;;;;;38.85;21.63;;;;;;;6.05;100.00;98528.56;5069837;28;20686;-63
2023/03/02 09:54:36;;;;;;;39.53;21.80;;;;;;;6.08;100.00;98520.59;5029022;28;20032;-63
2023/03/02 09:57:02;;;;;;;39.08;22.85;;;;;;;6.03;100.00;98512.38;5046973;28;20035;-62
2023/03/02 09:59:40;;;;;;;41.97;22.48;;;;;;;6.08;100.00;98518.84;5047749;28;20039;-61
2023/03/02 10:02:29;;;;;;;37.33;22.17;;;;;;;6.18;100.00;98516.34;5047628;28;20093;-61
2023/03/02 10:04:59;;;;;;;37.33;20.83;;;;;;;6.20;100.00;98511.88;5029717;28;20043;-62
2023/03/02 10:07:28;;;;;;;40.17;22.70;;;;;;;6.26;100.00;98513.16;5052621;28;20024;-62
2023/03/02 10:09:58;;;;;;;37.42;22.08;;;;;;;6.14;100.00;98471.06;5053254;28;20973;-62
2023/03/02 10:12:30;;;;;;;37.30;22.65;;;;;;;6.40;100.00;98492.25;5052139;28;20730;-62
2023/03/02 10:15:00;;;;;;;36.92;21.38;;;;;;;6.53;100.00;98502.44;5053539;28;20473;-61
2023/03/02 10:17:44;;;;;;;;;;;;;;;6.52;100.00;98498.22;5054260;28;20040;-62
2023/03/02 10:20:50;;;;;;;35.35;21.23;;;;;;;6.52;100.00;98501.63;5069190;28;19916;-62
2023/03/02 10:23:18;;;;;;;35.80;21.30;;;;;;;6.56;100.00;98503.97;5050745;28;20044;-61
2023/03/02 10:25:51;;;;;;;36.58;22.10;;;;;;;6.57;100.00;98497.84;5070361;28;20024;-62
2023/03/02 10:28:21;;;;;;;34.22;20.02;;;;;;;6.26;100.00;98452.03;5072187;28;20031;-61
2023/03/02 10:31:03;;;;;;;33.20;20.83;;;;;;;6.60;100.00;98489.88;5052210;28;20038;-62
2023/03/02 10:33:29;;;;;;;37.42;21.13;;;;;;;6.66;100.00;98500.53;5038455;28;20045;-61
2023/03/02 10:35:55;;;;;;;37.63;22.17;;;;;;;6.72;100.00;98501.81;5072565;28;20164;-62
2023/03/02 10:38:22;;;;;;;39.30;22.33;;;;;;;6.76;100.00;98489.47;5053503;28;20032;-62
2023/03/02 10:41:09;;;;;;;32.20;20.58;;;;;;;6.80;100.00;98503.78;5029312;28;20032;-62
2023/03/02 10:43:46;;;;;;;36.90;20.77;;;;;;;6.80;100.00;98491.66;5070756;28;20087;-62
2023/03/02 10:46:12;;;;;;;35.00;21.70;;;;;;;6.99;100.00;98498.75;5067662;28;20044;-62
2023/03/02 10:48:52;;;;;;;35.53;20.73;;;;;;;6.92;99.91;98461.44;5054644;28;20055;-62
2023/03/02 10:51:27;;;;;;;32.47;19.70;;;;;;;7.18;95.94;98503.25;5052289;28;20035;-62
2023/03/02 10:54:06;;;;;;;31.42;18.77;;;;;;;7.38;94.30;98498.19;5048566;28;20107;-61
2023/03/02 10:56:32;;;;;;;34.58;20.80;;;;;;;7.49;95.44;98488.59;5071705;28;21640;-61
2023/03/02 10:59:02;;;;;;;36.55;20.23;;;;;;;7.25;97.20;98442.31;5051438;28;20050;-61
2023/03/02 11:01:30;;;;;;;35.75;21.15;;;;;;;7.64;96.97;98480.50;5060882;28;20032;-61
2023/03/02 11:04:01;;;;;;;33.80;20.58;;;;;;;7.73;96.72;98484.88;5024127;28;20078;-62
2023/03/02 11:06:28;;;;;;;32.17;19.45;;;;;;;7.74;92.80;98483.13;5023621;28;20093;-62
2023/03/02 11:09:01;;;;;;;31.75;18.90;;;;;;;7.79;90.99;98468.03;5048378;28;20024;-61
2023/03/02 11:11:27;;;;;;;31.02;17.67;;;;;;;7.91;90.06;98479.94;5042950;28;20146;-62
2023/03/02 11:13:54;;;;;;;26.33;16.13;;;;;;;7.99;87.95;98474.91;5041917;28;20492;-62
2023/03/02 11:16:30;;;;;;;27.92;16.77;;;;;;;8.06;87.58;98465.66;5047266;28;20894;-61
2023/03/02 11:19:11;;;;;;;24.17;14.35;;;;;;;8.17;86.72;98462.13;5065405;28;20062;-60
2023/03/02 11:21:56;;;;;;;22.92;14.32;;;;;;;8.29;84.01;98457.69;5068443;28;20032;-62